Time;durP1;ratioP1;P1;durP2;ratioP2;P2;SDS_P1;SDS_P2;PMS_P1;PMS_P2;Temp;Humidity;BMP_temperature;BMP_pressure;BME280_temperature;BME280_humidity;BME280_pressure;Samples;Min_cycle;Max_cycle;Signal;HPM_P1;HPM_P2
2022/05/29 00:02:09;;;;;;;8.73;3.00;;;8.50;99.90;;;;;;4846294;29;20104;-79
2022/05/29 00:04:36;;;;;;;6.25;2.85;;;8.60;99.90;;;;;;4844232;29;20413;-79
2022/05/29 00:07:11;;;;;;;5.75;2.95;;;8.60;99.90;;;;;;4830476;29;20078;-79
2022/05/29 00:09:40;;;;;;;3.67;2.37;;;8.60;99.90;;;;;;4839699;29;20124;-79
2022/05/29 00:12:13;;;;;;;7.20;2.78;;;8.60;99.90;;;;;;4851308;29;20096;-79
2022/05/29 00:14:41;;;;;;;7.15;2.65;;;8.60;99.90;;;;;;4842627;29;20071;-79
2022/05/29 00:17:08;;;;;;;5.05;2.53;;;8.60;99.90;;;;;;4846755;29;20138;-79
2022/05/29 00:19:37;;;;;;;4.60;2.28;;;8.70;99.90;;;;;;4841115;29;20041;-79
2022/05/29 00:22:07;;;;;;;5.78;2.58;;;8.80;99.90;;;;;;4845921;29;20081;-79
2022/05/29 00:24:37;;;;;;;7.65;2.72;;;8.80;99.90;;;;;;4845573;29;20041;-80
2022/05/29 00:27:07;;;;;;;6.93;2.67;;;8.80;99.90;;;;;;4860400;29;20049;-80
2022/05/29 00:29:35;;;;;;;8.55;2.95;;;8.90;99.90;;;;;;4841771;29;20033;-79
2022/05/29 00:32:10;;;;;;;7.35;2.63;;;8.90;99.90;;;;;;4837208;29;20563;-79
2022/05/29 00:34:39;;;;;;;6.75;2.63;;;8.90;99.90;;;;;;4855743;29;20073;-79
2022/05/29 00:37:08;;;;;;;4.53;2.80;;;9.00;99.90;;;;;;4844954;29;20045;-79
2022/05/29 00:39:34;;;;;;;5.53;2.70;;;9.00;99.90;;;;;;4841581;29;20045;-79
2022/05/29 00:42:08;;;;;;;4.40;2.60;;;9.00;99.90;;;;;;4841663;29;20124;-79
2022/05/29 00:44:35;;;;;;;4.10;2.30;;;9.00;99.90;;;;;;4858832;29;20052;-79
2022/05/29 00:47:15;;;;;;;4.97;2.30;;;9.00;99.90;;;;;;4861429;29;20056;-79
2022/05/29 00:49:46;;;;;;;7.40;2.50;;;9.00;99.90;;;;;;4843480;29;20044;-80
2022/05/29 00:52:22;;;;;;;4.65;2.45;;;9.00;99.90;;;;;;4846275;29;20074;-79
2022/05/29 00:54:56;;;;;;;5.28;2.70;;;9.10;99.90;;;;;;4839598;29;20124;-79
2022/05/29 00:57:53;;;;;;;6.20;2.60;;;9.00;99.90;;;;;;4838963;29;20037;-79
2022/05/29 01:00:25;;;;;;;4.65;2.58;;;9.10;99.90;;;;;;4844183;29;20113;-79
2022/05/29 01:02:58;;;;;;;5.88;2.42;;;9.00;99.90;;;;;;4857368;29;20053;-79
2022/05/29 01:05:26;;;;;;;;;;;9.00;99.90;;;;;;4845244;29;20049;-79
2022/05/29 01:08:12;;;;;;;3.50;2.60;;;9.00;99.90;;;;;;4841563;29;19939;-79
2022/05/29 01:10:53;;;;;;;4.38;2.25;;;8.90;99.90;;;;;;4841498;29;20155;-79
2022/05/29 01:13:37;;;;;;;3.78;2.15;;;8.90;99.90;;;;;;4840347;29;20049;-79
2022/05/29 01:16:45;;;;;;;8.50;2.42;;;8.90;99.90;;;;;;4845957;29;20041;-79
2022/05/29 01:19:26;;;;;;;5.63;2.10;;;8.90;99.90;;;;;;4838054;29;20041;-79
2022/05/29 01:22:05;;;;;;;4.53;2.08;;;8.70;99.90;;;;;;4842698;29;20092;-79
2022/05/29 01:24:57;;;;;;;5.03;2.63;;;8.80;99.90;;;;;;4846177;29;20045;-80
2022/05/29 01:27:29;;;;;;;4.22;2.30;;;8.80;99.90;;;;;;4837244;29;20084;-79
2022/05/29 01:30:05;;;;;;;4.40;2.47;;;8.80;99.90;;;;;;4844946;29;20076;-80
2022/05/29 01:32:46;;;;;;;3.70;2.08;;;8.80;99.90;;;;;;4848155;29;20081;-79
2022/05/29 01:35:37;;;;;;;4.95;1.92;;;8.80;99.90;;;;;;4845010;29;20041;-79
2022/05/29 01:38:31;;;;;;;3.88;2.03;;;8.70;99.90;;;;;;4848217;29;20603;-79
2022/05/29 01:41:06;;;;;;;3.47;2.22;;;8.70;99.90;;;;;;4843757;29;20072;-79
2022/05/29 01:43:37;;;;;;;5.25;2.10;;;8.60;99.90;;;;;;4841607;29;20045;-79
2022/05/29 01:46:16;;;;;;;4.28;2.00;;;8.50;99.90;;;;;;4843673;29;20408;-79
2022/05/29 01:48:51;;;;;;;4.03;2.00;;;8.40;99.90;;;;;;4847807;29;20041;-79
2022/05/29 01:51:42;;;;;;;5.32;2.33;;;8.30;99.90;;;;;;4834615;29;20438;-79
2022/05/29 01:54:38;;;;;;;3.95;2.70;;;8.30;99.90;;;;;;4847970;29;20128;-79
2022/05/29 01:57:29;;;;;;;6.20;2.30;;;8.30;99.90;;;;;;4833492;29;20046;-79
2022/05/29 02:00:03;;;;;;;5.38;2.90;;;8.30;99.90;;;;;;4846800;29;20072;-79
2022/05/29 02:02:41;;;;;;;7.40;3.13;;;8.30;99.90;;;;;;4864216;29;20075;-79
2022/05/29 02:05:18;;;;;;;5.20;2.55;;;8.30;99.90;;;;;;4848689;29;20069;-79
2022/05/29 02:08:03;;;;;;;4.22;2.40;;;8.40;99.90;;;;;;4843690;29;20124;-79
2022/05/29 02:10:44;;;;;;;9.05;3.35;;;8.40;99.90;;;;;;4835141;29;20044;-79
2022/05/29 02:13:52;;;;;;;8.50;3.47;;;8.50;99.90;;;;;;4845629;29;20101;-79
2022/05/29 02:16:35;;;;;;;6.95;3.28;;;8.60;99.90;;;;;;4831561;29;20056;-79
2022/05/29 02:19:23;;;;;;;9.45;3.65;;;8.60;99.90;;;;;;4841711;29;20299;-79
2022/05/29 02:22:25;;;;;;;10.57;4.05;;;8.70;99.90;;;;;;4851458;29;20100;-79
2022/05/29 02:25:07;;;;;;;5.30;2.83;;;8.70;99.90;;;;;;4837673;29;20441;-79
2022/05/29 02:27:50;;;;;;;7.00;3.38;;;8.80;99.90;;;;;;4848428;29;20052;-79
2022/05/29 02:30:22;;;;;;;6.00;3.30;;;8.70;99.90;;;;;;4847770;29;20483;-79
2022/05/29 02:33:04;;;;;;;6.43;3.15;;;8.80;99.90;;;;;;4844670;29;20060;-79
2022/05/29 02:35:48;;;;;;;6.93;2.95;;;8.80;99.90;;;;;;4845328;29;20075;-79
2022/05/29 02:38:22;;;;;;;9.25;3.33;;;8.80;99.90;;;;;;4850178;29;20037;-79
2022/05/29 02:41:02;;;;;;;7.00;2.58;;;8.80;99.90;;;;;;4855738;29;20161;-79
2022/05/29 02:43:57;;;;;;;7.32;3.08;;;8.80;99.90;;;;;;4847445;29;20040;-79
2022/05/29 02:46:43;;;;;;;6.00;2.97;;;8.70;99.90;;;;;;4857187;29;20034;-79
2022/05/29 02:49:21;;;;;;;6.35;3.13;;;8.70;99.90;;;;;;4837351;29;20072;-79
2022/05/29 02:52:09;;;;;;;7.90;3.17;;;8.70;99.90;;;;;;4845529;29;20041;-79
2022/05/29 02:54:41;;;;;;;8.35;2.97;;;8.70;99.90;;;;;;4848312;29;20488;-79
2022/05/29 02:57:16;;;;;;;6.43;2.70;;;8.70;99.90;;;;;;4847456;29;20044;-79
2022/05/29 03:00:13;;;;;;;5.68;3.10;;;8.70;99.90;;;;;;4851314;29;20135;-79
2022/05/29 03:02:44;;;;;;;6.75;2.90;;;8.60;99.90;;;;;;4835823;29;20083;-79
2022/05/29 03:05:38;;;;;;;6.05;2.78;;;8.60;99.90;;;;;;4844466;29;20037;-79
2022/05/29 03:08:45;;;;;;;7.63;2.90;;;8.50;99.90;;;;;;4848697;29;20136;-79
2022/05/29 03:11:33;;;;;;;6.68;3.03;;;8.50;99.90;;;;;;4854757;29;20060;-80
2022/05/29 03:14:23;;;;;;;6.57;3.25;;;8.50;99.90;;;;;;4839048;29;20037;-79
2022/05/29 03:17:36;;;;;;;6.15;3.00;;;8.60;99.90;;;;;;4836646;29;20548;-80
2022/05/29 03:20:21;;;;;;;8.18;3.42;;;8.60;99.90;;;;;;4846244;29;20045;-79
2022/05/29 03:23:19;;;;;;;6.00;2.97;;;8.60;99.90;;;;;;4847167;29;20041;-80
2022/05/29 03:26:03;;;;;;;5.72;2.80;;;8.50;99.90;;;;;;4839742;29;20079;-80
2022/05/29 03:28:42;;;;;;;9.85;3.80;;;8.60;99.90;;;;;;4841107;29;20055;-80
2022/05/29 03:31:15;;;;;;;7.10;2.88;;;8.60;99.90;;;;;;4834474;29;20125;-80
2022/05/29 03:33:56;;;;;;;7.57;2.90;;;8.60;99.90;;;;;;4846725;29;20072;-80
2022/05/29 03:36:30;;;;;;;8.20;2.70;;;8.50;99.90;;;;;;4849055;29;20043;-80
2022/05/29 03:39:03;;;;;;;6.10;2.88;;;8.50;99.90;;;;;;4847022;29;20045;-80
2022/05/29 03:41:39;;;;;;;8.55;3.35;;;8.60;99.90;;;;;;4845132;29;20049;-79
2022/05/29 03:44:14;;;;;;;8.55;2.70;;;8.70;99.90;;;;;;4846374;29;20041;-79
2022/05/29 03:46:56;;;;;;;6.35;3.22;;;8.60;99.90;;;;;;4847645;29;20049;-80
2022/05/29 03:49:30;;;;;;;7.10;3.03;;;8.50;99.90;;;;;;4849540;29;20120;-80
2022/05/29 03:52:07;;;;;;;8.10;3.30;;;8.70;99.90;;;;;;4845000;29;20033;-80
2022/05/29 03:54:35;;;;;;;8.15;3.53;;;8.70;99.90;;;;;;4861608;29;20045;-80
2022/05/29 03:57:17;;;;;;;8.88;3.17;;;8.70;99.90;;;;;;4838475;29;20135;-79
2022/05/29 03:59:49;;;;;;;8.27;3.10;;;8.60;99.90;;;;;;4844339;29;21244;-80
2022/05/29 04:02:19;;;;;;;5.78;3.42;;;8.60;99.90;;;;;;4837986;29;20045;-80
2022/05/29 04:04:49;;;;;;;6.55;2.78;;;8.60;99.90;;;;;;4860223;29;20073;-79
2022/05/29 04:12:03;;;;;;;6.15;2.80;;;8.60;99.90;;;;;;4838131;29;20042;-79
2022/05/29 04:13:06;;;;;;;5.85;3.05;;;8.70;99.90;;;;;;4860244;29;20186;-79
2022/05/29 04:16:01;;;;;;;7.07;3.05;;;8.70;99.90;;;;;;4876115;29;20045;-79
2022/05/29 04:18:34;;;;;;;9.52;2.72;;;8.70;99.90;;;;;;4829719;29;20038;-80
2022/05/29 04:21:18;;;;;;;9.73;3.15;;;8.70;99.90;;;;;;4858193;29;20128;-79
2022/05/29 04:26:41;;;;;;;8.65;2.65;;;8.70;99.90;;;;;;4871024;23;20049;-80
2022/05/29 04:29:06;;;;;;;6.78;2.63;;;8.80;99.90;;;;;;4831182;29;20070;-80
2022/05/29 04:31:33;;;;;;;6.25;2.42;;;8.80;99.90;;;;;;4828541;29;20040;-80
2022/05/29 04:33:58;;;;;;;10.52;2.90;;;8.80;99.90;;;;;;4834308;29;20453;-81
2022/05/29 04:36:24;;;;;;;8.80;2.83;;;8.90;99.90;;;;;;4849479;29;20090;-81
2022/05/29 04:38:55;;;;;;;6.53;2.80;;;8.90;99.90;;;;;;4833326;29;20101;-80
2022/05/29 04:41:25;;;;;;;7.45;2.65;;;9.00;99.90;;;;;;4829891;29;20528;-81
2022/05/29 04:43:52;;;;;;;5.75;2.60;;;9.00;99.90;;;;;;4828624;29;20045;-81
2022/05/29 04:46:18;;;;;;;7.25;2.83;;;9.10;99.90;;;;;;4834897;29;20056;-81
2022/05/29 04:48:44;;;;;;;6.90;2.13;;;9.10;99.90;;;;;;4850200;29;20520;-80
2022/05/29 04:51:09;;;;;;;7.50;3.13;;;9.10;99.90;;;;;;4845249;29;20037;-81
2022/05/29 04:53:36;;;;;;;4.68;2.30;;;9.10;99.90;;;;;;4851135;29;20065;-81
2022/05/29 04:56:03;;;;;;;4.20;2.13;;;9.10;99.90;;;;;;4835575;29;20046;-82
2022/05/29 04:58:29;;;;;;;2.92;1.98;;;9.10;99.90;;;;;;4843560;29;20481;-80
2022/05/29 05:00:59;;;;;;;5.57;2.30;;;9.10;99.90;;;;;;4842989;29;20054;-81
2022/05/29 05:03:25;;;;;;;4.90;2.53;;;9.20;99.90;;;;;;4836631;29;20037;-80
2022/05/29 05:05:51;;;;;;;5.82;2.47;;;9.20;99.90;;;;;;4838169;29;20045;-81
2022/05/29 05:08:16;;;;;;;5.90;2.08;;;9.20;99.90;;;;;;4837957;29;20101;-81
2022/05/29 05:10:42;;;;;;;6.95;2.20;;;9.30;99.90;;;;;;4838647;29;20061;-80
2022/05/29 05:13:08;;;;;;;7.18;2.35;;;9.30;99.90;;;;;;4870233;29;20049;-80
2022/05/29 05:15:35;;;;;;;5.03;2.42;;;9.40;99.90;;;;;;4855724;29;20049;-81
2022/05/29 05:18:01;;;;;;;10.77;2.65;;;9.40;99.90;;;;;;4837925;29;20069;-80
2022/05/29 05:20:26;;;;;;;6.07;2.30;;;9.50;99.90;;;;;;4834159;29;20561;-80
2022/05/29 05:22:52;;;;;;;6.57;2.55;;;9.60;99.90;;;;;;4856334;29;20109;-80
2022/05/29 05:25:18;;;;;;;7.47;2.70;;;9.70;99.90;;;;;;4839935;29;20076;-80
2022/05/29 05:27:43;;;;;;;7.60;2.40;;;9.80;99.90;;;;;;4840828;29;20093;-82
2022/05/29 05:30:10;;;;;;;6.03;2.17;;;9.90;99.90;;;;;;4856760;29;20085;-80
2022/05/29 05:32:35;;;;;;;7.47;3.28;;;10.00;99.90;;;;;;4873309;29;20041;-81
2022/05/29 05:35:04;;;;;;;6.25;2.33;;;10.30;99.90;;;;;;4857105;29;20051;-80
2022/05/29 05:37:31;;;;;;;5.72;2.42;;;10.40;99.90;;;;;;4856709;29;20046;-81
2022/05/29 05:39:56;;;;;;;3.78;2.00;;;10.50;99.90;;;;;;4846551;29;20497;-80
2022/05/29 05:42:22;;;;;;;6.63;2.13;;;10.70;99.90;;;;;;4860579;29;20110;-82
2022/05/29 05:44:48;;;;;;;6.15;1.83;;;10.80;99.90;;;;;;4862229;29;20045;-82
2022/05/29 05:47:13;;;;;;;8.02;1.90;;;11.00;99.90;;;;;;4830616;29;20521;-82
2022/05/29 05:49:39;;;;;;;5.63;2.33;;;11.30;99.90;;;;;;4837537;29;20109;-81
2022/05/29 05:52:05;;;;;;;6.47;2.05;;;11.50;99.90;;;;;;4837037;29;20062;-81
2022/05/29 05:54:32;;;;;;;5.18;2.17;;;11.70;99.90;;;;;;4857075;29;20041;-81
2022/05/29 05:56:58;;;;;;;6.13;2.10;;;11.90;99.90;;;;;;4838574;29;20048;-80
2022/05/29 05:59:23;;;;;;;5.65;1.98;;;11.90;99.90;;;;;;4835831;29;20295;-80
2022/05/29 06:01:49;;;;;;;7.43;1.58;;;12.00;99.90;;;;;;4835421;29;20050;-80
2022/05/29 06:04:14;;;;;;;4.90;1.70;;;12.00;99.90;;;;;;4852654;29;20109;-80
2022/05/29 06:06:40;;;;;;;5.45;1.55;;;12.10;99.90;;;;;;4853694;29;20049;-80
2022/05/29 06:09:06;;;;;;;3.45;1.40;;;12.10;99.90;;;;;;4856253;29;20097;-80
2022/05/29 06:11:33;;;;;;;4.68;1.65;;;12.10;99.90;;;;;;4844649;29;20073;-80
2022/05/29 06:13:58;;;;;;;5.10;1.52;;;12.20;99.90;;;;;;4833498;29;20041;-82
2022/05/29 06:16:24;;;;;;;7.20;1.80;;;12.30;99.90;;;;;;4838425;29;20515;-80
2022/05/29 06:18:49;;;;;;;5.40;1.73;;;12.40;99.90;;;;;;4838175;29;20534;-80
2022/05/29 06:21:15;;;;;;;4.38;1.60;;;12.50;99.90;;;;;;4839246;29;20422;-80
2022/05/29 06:23:41;;;;;;;3.60;1.60;;;12.60;99.90;;;;;;4848311;29;20469;-80
2022/05/29 06:26:10;;;;;;;3.75;1.40;;;12.70;99.90;;;;;;4857957;29;20061;-80
2022/05/29 06:28:36;;;;;;;3.58;1.40;;;12.80;99.90;;;;;;4835284;29;20041;-80
2022/05/29 06:31:06;;;;;;;3.83;1.33;;;12.90;99.90;;;;;;4846782;29;20070;-78
2022/05/29 06:33:32;;;;;;;5.10;1.58;;;13.00;99.90;;;;;;4846848;29;20052;-80
2022/05/29 06:36:13;;;;;;;6.43;1.50;;;13.00;99.90;;;;;;4828556;29;20050;-80
2022/05/29 06:38:40;;;;;;;3.97;1.40;;;12.90;99.90;;;;;;4855603;29;20504;-81
2022/05/29 06:41:10;;;;;;;5.57;1.60;;;12.90;99.90;;;;;;4843516;29;20045;-81
2022/05/29 06:43:38;;;;;;;7.50;1.73;;;12.90;99.90;;;;;;4833924;29;20518;-80
2022/05/29 06:46:05;;;;;;;6.97;1.40;;;12.80;99.90;;;;;;4862346;29;20081;-81
2022/05/29 06:48:33;;;;;;;6.90;1.40;;;12.70;99.90;;;;;;4831632;29;20497;-80
2022/05/29 06:51:03;;;;;;;7.38;1.30;;;12.60;99.90;;;;;;4845282;29;20076;-81
2022/05/29 06:53:29;;;;;;;6.63;1.48;;;12.50;99.90;;;;;;4847205;29;20069;-80
2022/05/29 06:55:55;;;;;;;4.43;1.20;;;12.40;99.90;;;;;;4847080;29;20049;-82
2022/05/29 06:58:22;;;;;;;5.03;1.48;;;12.40;99.90;;;;;;4830790;29;20042;-82
2022/05/29 07:09:03;;;;;;;4.53;1.30;;;12.10;99.90;;;;;;4880940;29;20053;-82
2022/05/29 07:11:30;;;;;;;4.10;1.77;;;12.00;99.90;;;;;;4836110;29;20543;-82
2022/05/29 07:13:58;;;;;;;3.47;1.30;;;12.00;99.90;;;;;;4829487;29;20048;-83
2022/05/29 07:16:23;;;;;;;5.93;1.17;;;12.00;99.90;;;;;;4835100;29;20041;-82
2022/05/29 07:18:50;;;;;;;5.38;1.30;;;12.00;99.90;;;;;;4849082;29;20136;-82
2022/05/29 07:21:17;;;;;;;11.90;1.30;;;12.00;99.90;;;;;;4847465;29;20133;-81
2022/05/29 07:23:43;;;;;;;5.70;1.20;;;12.00;99.90;;;;;;4830065;29;20501;-83
2022/05/29 07:26:09;;;;;;;6.63;1.17;;;12.10;99.90;;;;;;4840448;29;20174;-82
2022/05/29 07:28:34;;;;;;;5.80;1.13;;;12.00;99.90;;;;;;4846670;29;20505;-82
2022/05/29 07:31:00;;;;;;;5.97;1.15;;;12.10;99.90;;;;;;4833100;29;20097;-82
2022/05/29 07:33:27;;;;;;;4.68;1.00;;;12.00;99.90;;;;;;4832493;29;20481;-80
2022/05/29 07:35:52;;;;;;;3.97;1.20;;;12.10;99.90;;;;;;4849739;29;20128;-81
2022/05/29 07:38:19;;;;;;;4.38;1.10;;;12.10;99.90;;;;;;4850499;29;20484;-80
2022/05/29 07:40:44;;;;;;;7.10;1.83;;;12.30;99.90;;;;;;4845438;29;20033;-80
2022/05/29 07:43:18;;;;;;;4.25;0.90;;;12.40;99.90;;;;;;4843982;29;20046;-80
2022/05/29 07:45:57;;;;;;;4.15;0.98;;;12.50;99.90;;;;;;4823823;29;20038;-80
2022/05/29 07:48:26;;;;;;;4.22;1.10;;;12.70;99.90;;;;;;4861114;29;20049;-80
2022/05/29 07:50:52;;;;;;;4.80;1.10;;;12.90;99.90;;;;;;4831400;29;20121;-79
2022/05/29 07:53:18;;;;;;;6.75;1.60;;;13.00;99.90;;;;;;4857948;29;20437;-79
2022/05/29 07:55:44;;;;;;;4.50;1.10;;;13.10;99.90;;;;;;4831524;29;20129;-79
2022/05/29 07:58:11;;;;;;;9.43;1.95;;;13.20;99.90;;;;;;4835366;29;20037;-80
2022/05/29 08:00:37;;;;;;;7.13;1.15;;;13.10;99.90;;;;;;4850590;29;20086;-80
2022/05/29 08:03:04;;;;;;;5.35;1.08;;;13.00;99.90;;;;;;4864756;29;20049;-80
2022/05/29 08:05:31;;;;;;;3.22;1.10;;;12.80;99.90;;;;;;4844674;29;20476;-77
2022/05/29 08:07:58;;;;;;;7.05;0.95;;;12.60;99.90;;;;;;4841240;29;20381;-78
2022/05/29 08:10:25;;;;;;;7.20;1.30;;;12.50;99.90;;;;;;4843398;29;20052;-78
2022/05/29 08:12:52;;;;;;;6.63;1.10;;;12.40;99.90;;;;;;4828125;29;20041;-78
2022/05/29 08:15:18;;;;;;;5.97;1.13;;;12.30;99.90;;;;;;4841406;29;20045;-77
2022/05/29 08:17:44;;;;;;;5.80;1.30;;;12.30;99.90;;;;;;4827701;29;20056;-78
2022/05/29 08:20:12;;;;;;;6.30;1.50;;;12.30;99.90;;;;;;4828132;29;20061;-78
2022/05/29 08:22:37;;;;;;;7.57;1.60;;;12.40;99.90;;;;;;4827797;29;20523;-77
2022/05/29 08:30:40;;;;;;;6.70;1.10;;;12.90;99.90;;;;;;4853731;29;20045;-77
2022/05/29 08:33:15;;;;;;;4.50;1.27;;;13.00;99.90;;;;;;4842738;29;20041;-77
2022/05/29 08:35:43;;;;;;;3.85;1.10;;;13.10;99.90;;;;;;4835424;29;20050;-77
2022/05/29 08:38:10;;;;;;;5.22;1.23;;;13.30;99.90;;;;;;4842206;29;20080;-77
2022/05/29 08:40:46;;;;;;;5.47;1.42;;;13.30;99.90;;;;;;4822890;29;20057;-77
2022/05/29 08:43:18;;;;;;;3.50;0.90;;;13.40;99.90;;;;;;4849125;29;20090;-77
2022/05/29 08:45:48;;;;;;;4.90;0.90;;;13.30;99.90;;;;;;4858202;29;20045;-77
2022/05/29 08:48:16;;;;;;;5.93;0.98;;;13.20;99.90;;;;;;4842532;29;20412;-77
2022/05/29 08:51:23;;;;;;;4.68;0.90;;;13.00;99.90;;;;;;4826973;29;20038;-77
2022/05/29 08:54:06;;;;;;;4.20;1.00;;;12.70;99.90;;;;;;4841301;29;20045;-76
2022/05/29 08:56:56;;;;;;;5.05;1.00;;;12.60;99.90;;;;;;4845107;29;20041;-77
2022/05/29 08:59:51;;;;;;;2.78;0.70;;;12.50;99.90;;;;;;4857969;29;20080;-77
2022/05/29 09:02:35;;;;;;;2.40;1.00;;;12.50;99.90;;;;;;4825919;29;20535;-76
2022/05/29 09:05:11;;;;;;;1.85;0.95;;;12.50;99.90;;;;;;4857740;29;20072;-77
2022/05/29 09:07:39;;;;;;;5.00;1.40;;;12.70;99.90;;;;;;4838277;29;20520;-77
2022/05/29 09:10:15;;;;;;;3.58;0.80;;;12.90;99.90;;;;;;4844175;29;20500;-78
2022/05/29 09:12:49;;;;;;;4.40;0.90;;;13.20;99.90;;;;;;4834602;29;20045;-79
2022/05/29 09:15:27;;;;;;;3.42;0.75;;;13.80;99.90;;;;;;4855961;29;20092;-79
2022/05/29 09:17:56;;;;;;;3.15;0.70;;;14.50;99.90;;;;;;4817491;29;20046;-77
2022/05/29 09:20:30;;;;;;;5.03;0.70;;;15.10;99.90;;;;;;4842974;29;20053;-80
2022/05/29 09:22:57;;;;;;;2.38;0.68;;;15.60;99.90;;;;;;4824980;29;20546;-79
2022/05/29 09:25:36;;;;;;;2.55;0.73;;;15.90;99.90;;;;;;4825925;29;20046;-79
2022/05/29 09:28:07;;;;;;;3.35;0.52;;;16.20;99.90;;;;;;4838837;29;20046;-79
2022/05/29 09:30:33;;;;;;;3.83;0.60;;;16.50;99.90;;;;;;4840399;29;20038;-78
2022/05/29 09:33:02;;;;;;;4.55;0.80;;;16.70;99.90;;;;;;4842507;29;20057;-79
2022/05/29 09:35:42;;;;;;;2.22;0.70;;;16.90;99.90;;;;;;4840352;29;20117;-79
2022/05/29 09:38:14;;;;;;;3.00;0.70;;;16.70;99.90;;;;;;4817074;29;20098;-79
2022/05/29 09:41:04;;;;;;;3.57;0.83;;;16.50;99.90;;;;;;4828116;29;20046;-79
2022/05/29 09:43:30;;;;;;;3.00;0.73;;;16.30;99.90;;;;;;4826853;29;20065;-80
2022/05/29 09:46:15;;;;;;;3.28;0.90;;;16.10;99.90;;;;;;4837254;29;20057;-79
2022/05/29 09:51:29;;;;;;;1.80;0.70;;;15.60;99.90;;;;;;4859037;29;20110;-79
2022/05/29 09:53:58;;;;;;;2.40;0.50;;;15.50;99.90;;;;;;4843205;29;20049;-77
2022/05/29 09:56:33;;;;;;;3.38;0.70;;;15.50;99.90;;;;;;4826324;29;20042;-78
2022/05/29 09:59:25;;;;;;;2.60;0.40;;;15.70;99.90;;;;;;4827425;29;20058;-77
2022/05/29 10:02:03;;;;;;;1.48;0.52;;;15.80;99.90;;;;;;4826703;29;20178;-77
2022/05/29 10:04:38;;;;;;;2.95;0.52;;;15.90;99.90;;;;;;4830138;29;20049;-77
2022/05/29 10:07:30;;;;;;;2.83;0.65;;;16.00;99.90;;;;;;4829045;29;20415;-77
2022/05/29 10:10:06;;;;;;;1.38;0.40;;;16.20;99.90;;;;;;4829758;29;20045;-77
2022/05/29 10:12:44;;;;;;;2.92;0.52;;;16.40;99.90;;;;;;4840501;29;20037;-77
2022/05/29 10:15:33;;;;;;;4.00;0.70;;;16.40;99.90;;;;;;4860349;29;20132;-77
2022/05/29 10:18:04;;;;;;;2.05;0.50;;;16.30;99.90;;;;;;4844546;29;20085;-76
2022/05/29 10:20:35;;;;;;;1.55;0.50;;;16.30;99.90;;;;;;4845624;29;20060;-78
2022/05/29 10:23:07;;;;;;;4.00;0.65;;;16.20;99.90;;;;;;4826456;29;20052;-77
2022/05/29 10:25:42;;;;;;;3.25;0.52;;;16.20;99.90;;;;;;4844526;29;20429;-78
2022/05/29 10:28:24;;;;;;;2.70;0.70;;;16.40;99.90;;;;;;4858983;24;20452;-82
2022/05/29 10:31:08;;;;;;;3.97;0.80;;;16.50;99.90;;;;;;4829423;29;20556;-81
2022/05/29 10:34:02;;;;;;;4.78;0.68;;;16.60;99.90;;;;;;4820776;29;20037;-81
2022/05/29 10:36:54;;;;;;;1.80;0.73;;;16.90;99.90;;;;;;4821641;29;20186;-82
2022/05/29 10:39:31;;;;;;;1.25;0.50;;;17.20;99.90;;;;;;4848451;29;20041;-82
2022/05/29 10:42:07;;;;;;;1.83;0.50;;;17.30;99.90;;;;;;4824512;29;20053;-81
2022/05/29 10:44:55;;;;;;;1.95;0.50;;;17.40;99.90;;;;;;4824756;29;20073;-82
2022/05/29 10:48:12;;;;;;;3.78;0.70;;;17.30;99.90;;;;;;4848260;29;20042;-81
2022/05/29 10:51:18;;;;;;;1.25;0.70;;;17.20;99.90;;;;;;4794444;29;20054;-81
2022/05/29 10:57:58;;;;;;;2.50;0.60;;;16.90;99.90;;;;;;4826307;29;20041;-82
2022/05/29 11:04:44;;;;;;;1.80;0.40;;;16.60;99.90;;;;;;4830102;29;20282;-82
2022/05/29 11:08:01;;;;;;;;;;;;;;;;;;;;;
2022/05/29 11:11:35;;;;;;;2.25;0.63;;;16.10;99.90;;;;;;4798706;29;20506;-80
2022/05/29 11:14:53;;;;;;;2.25;0.70;;;15.70;99.90;;;;;;4784642;29;20051;-80
2022/05/29 11:29:39;;;;;;;1.70;0.60;;;14.90;99.90;;;;;;4726922;30;20060;-81
2022/05/29 11:33:04;;;;;;;;;;;;;;;;;;;;;
2022/05/29 11:42:53;;;;;;;4.25;0.70;;;15.50;99.90;;;;;;4841732;29;20054;-82
2022/05/29 12:07:11;;;;;;;4.20;0.95;;;14.90;99.90;;;;;;4871676;23;20107;-81
2022/05/29 12:10:58;;;;;;;2.70;0.90;;;15.00;99.90;;;;;;4858096;29;20127;-81
2022/05/29 12:14:37;;;;;;;2.63;0.75;;;15.10;99.90;;;;;;4758052;30;20436;-82
2022/05/29 12:20:33;;;;;;;3.28;0.80;;;14.90;99.90;;;;;;5523560;23;20451;-80
2022/05/29 12:23:31;;;;;;;3.35;1.63;;;14.80;99.90;;;;;;4869808;29;20063;-80
2022/05/29 12:32:39;;;;;;;;;;;;;;;;;;;;;
2022/05/29 12:39:07;;;;;;;2.97;0.93;;;13.40;99.90;;;;;;4937039;23;20064;-81
2022/05/29 12:42:41;;;;;;;2.78;0.70;;;13.50;99.90;;;;;;4849344;29;20065;-81
2022/05/29 12:46:26;;;;;;;6.32;1.30;;;13.70;99.90;;;;;;4755584;30;20117;-80
2022/05/29 12:50:05;;;;;;;5.10;0.80;;;13.90;99.90;;;;;;4761535;30;20048;-81
2022/05/29 13:03:21;;;;;;;2.17;0.90;;;14.60;99.90;;;;;;4826881;29;20130;-81
2022/05/29 13:06:22;;;;;;;4.38;1.13;;;15.00;99.90;;;;;;4819597;29;20141;-80
2022/05/29 13:09:36;;;;;;;3.30;1.08;;;15.20;99.90;;;;;;4839053;29;20057;-79
2022/05/29 13:12:26;;;;;;;3.10;1.13;;;15.20;99.90;;;;;;4840307;29;20046;-79
2022/05/29 13:15:02;;;;;;;3.22;0.90;;;15.00;99.90;;;;;;4832706;29;20037;-79
2022/05/29 13:17:31;;;;;;;6.55;0.98;;;14.70;99.90;;;;;;4825730;29;20129;-79
2022/05/29 13:20:06;;;;;;;4.47;1.10;;;14.60;99.90;;;;;;4847086;29;20038;-79
2022/05/29 13:22:56;;;;;;;2.67;0.82;;;14.30;99.90;;;;;;4838894;29;20578;-80
2022/05/29 13:25:59;;;;;;;3.00;0.77;;;14.30;99.90;;;;;;4836404;29;20390;-80
2022/05/29 13:29:00;;;;;;;5.97;0.90;;;14.30;99.90;;;;;;4825261;29;20381;-79
2022/05/29 13:31:37;;;;;;;4.32;0.88;;;14.30;99.90;;;;;;4821342;29;20525;-80
2022/05/29 13:34:27;;;;;;;3.90;0.80;;;14.40;99.90;;;;;;4849225;29;20045;-79
2022/05/29 13:36:55;;;;;;;2.58;0.82;;;14.40;99.90;;;;;;4841445;29;20132;-79
2022/05/29 13:39:35;;;;;;;2.30;1.00;;;14.50;99.90;;;;;;4845896;29;20081;-79
2022/05/29 13:42:04;;;;;;;2.88;1.00;;;14.60;99.90;;;;;;4837450;29;20057;-79
2022/05/29 13:44:45;;;;;;;5.80;1.10;;;14.80;99.90;;;;;;4831381;29;20049;-79
2022/05/29 13:47:47;;;;;;;4.60;1.15;;;14.90;99.90;;;;;;4832368;29;20068;-79
2022/05/29 13:51:18;;;;;;;;;;;;;;;;;;;;;
2022/05/29 13:54:32;;;;;;;4.78;1.00;;;14.90;99.90;;;;;;4821502;29;20050;-79
2022/05/29 13:57:06;;;;;;;3.17;0.90;;;14.60;99.90;;;;;;4775460;29;20527;-80
2022/05/29 14:06:18;;;;;;;2.30;0.60;;;13.70;99.90;;;;;;4862337;29;20153;-80
2022/05/29 14:09:03;;;;;;;2.88;0.82;;;13.50;99.90;;;;;;4849361;29;20165;-81
2022/05/29 14:12:03;;;;;;;2.78;0.70;;;13.40;99.90;;;;;;4830734;29;20488;-81
2022/05/29 14:14:49;;;;;;;2.97;0.88;;;13.40;99.90;;;;;;4845392;29;20539;-80
2022/05/29 14:17:38;;;;;;;2.92;0.77;;;13.50;99.90;;;;;;4841045;29;20058;-81
2022/05/29 14:20:40;;;;;;;5.43;0.93;;;13.80;99.90;;;;;;4866235;29;20046;-81
2022/05/29 14:23:40;;;;;;;1.70;0.80;;;14.00;99.90;;;;;;4866921;29;20385;-81
2022/05/29 14:29:24;;;;;;;3.40;0.73;;;14.40;99.90;;;;;;4861932;29;20049;-78
2022/05/29 14:32:52;;;;;;;1.98;0.60;;;14.60;99.90;;;;;;4818254;29;20045;-78
2022/05/29 14:36:01;;;;;;;2.55;0.80;;;14.70;99.90;;;;;;4839792;29;20053;-78
2022/05/29 14:38:51;;;;;;;4.95;0.98;;;14.90;99.90;;;;;;4795269;29;20042;-78
2022/05/29 14:41:35;;;;;;;3.38;0.70;;;14.90;99.90;;;;;;4797545;29;20061;-78
2022/05/29 14:44:46;;;;;;;1.52;0.60;;;15.00;99.90;;;;;;4797777;29;20497;-79
2022/05/29 14:47:45;;;;;;;2.80;0.70;;;15.00;99.90;;;;;;4805949;29;20050;-80
2022/05/29 14:50:33;;;;;;;4.10;0.75;;;15.10;99.90;;;;;;4803966;29;20046;-79
2022/05/29 14:53:35;;;;;;;1.90;0.80;;;15.10;99.90;;;;;;4797003;29;20046;-79
2022/05/29 14:56:12;;;;;;;2.85;0.70;;;15.00;99.90;;;;;;4797111;29;20038;-79
2022/05/29 15:02:06;;;;;;;4.55;1.15;;;14.70;99.90;;;;;;4822228;29;20046;-78
2022/05/29 15:05:11;;;;;;;5.07;1.13;;;14.30;99.90;;;;;;4830977;29;20536;-79
2022/05/29 15:15:41;;;;;;;7.05;0.90;;;13.00;99.90;;;;;;4830836;29;20037;-81
2022/05/29 15:29:33;;;;;;;4.65;0.88;;;12.10;99.90;;;;;;4870091;23;20121;-80
2022/05/29 15:32:36;;;;;;;6.00;0.90;;;12.10;99.90;;;;;;4847224;29;20053;-81
2022/05/29 15:35:14;;;;;;;5.05;0.80;;;12.20;99.90;;;;;;4827355;29;20108;-81
2022/05/29 15:38:24;;;;;;;3.13;0.85;;;12.20;99.90;;;;;;4837498;29;20490;-80
2022/05/29 15:41:06;;;;;;;3.85;0.90;;;12.20;99.90;;;;;;4863068;29;20484;-80
2022/05/29 15:43:55;;;;;;;5.53;1.13;;;12.30;99.90;;;;;;4856640;29;20519;-81
2022/05/29 15:46:21;;;;;;;4.45;1.00;;;12.40;99.90;;;;;;4862098;29;20050;-79
2022/05/29 15:49:26;;;;;;;7.70;1.25;;;12.50;99.90;;;;;;4860269;29;20041;-80
2022/05/29 15:52:04;;;;;;;4.72;1.10;;;12.60;99.90;;;;;;4865104;29;20041;-80
2022/05/29 15:54:57;;;;;;;3.95;1.00;;;12.70;99.90;;;;;;4885219;29;20124;-78
2022/05/29 15:57:40;;;;;;;5.80;1.38;;;12.80;99.90;;;;;;4848744;29;20036;-78
2022/05/29 16:00:23;;;;;;;7.75;0.73;;;12.80;99.90;;;;;;4851655;29;21591;-79
2022/05/29 16:03:03;;;;;;;4.53;1.10;;;12.80;99.90;;;;;;4862722;29;20104;-77
2022/05/29 16:05:38;;;;;;;4.65;1.25;;;12.80;99.90;;;;;;4850478;29;20052;-78